Impacts TAF Board
For situational awareness. Not to be used for flight planning purposes.
IDs:

KHBG - Hattiesburg/Chain Mu, MS, US

Issued at 1159 UTC 19 Aug 2019
Updated at 1413 UTC 19 Aug 2019
Potential Impact None Slight Moderate High
Time1353Z 19/15Z 19/16Z 19/17Z 19/18Z 19/19Z 19/20Z 19/21Z 19/22Z 19/23Z 20/00Z 20/01Z 20/02Z 20/03Z>>
Type OBS PRVL PRVL PRVL PRVL PRVL PRVL PRVL PRVL PRVL PRVL PRVL PRVL PRVL
VIS 10 >6 >6 >6 >6 >6 >6 >6 >6 >6 >6 >6 >6 >6
CIG 95 15 15 50 50 50 50 50 -- -- -- -- -- --
Cover BKN BKN BKN BKN BKN BKN BKN BKN SCT SCT SCT SCT SCT SCT
FltCat VFR MVFR MVFR VFR VFR VFR VFR VFR VFR VFR VFR VFR VFR VFR
WX -- -- -- -SHRA VCTS -SHRA VCTS -SHRA VCTS -SHRA VCTS -SHRA VCTS -- -- -- -- -- --
WDir VRB VRB VRB VRB VRB VRB VRB VRB VRB VRB VRB VRB VRB VRB
WSpd 0 3 3 4 4 4 4 4 4 4 4 4 4 4
WGst -- -- -- -- -- -- -- -- -- -- -- -- -- --
Raw TAF
KHBG 191159Z 1912/2012 00000KT P6SM FEW050
  FM191400 VRB03KT P6SM BKN015
  FM191700 VRB04KT P6SM -SHRA VCTS BKN050CB
  FM192200 VRB04KT P6SM SCT100


Raw METAR
KHBG 191353Z AUTO 00000KT 10SM BKN095 27/24 A3006 RMK AO2 SLP175 T02720239
KHBG 191253Z AUTO 00000KT 10SM CLR 26/23 A3005 RMK AO2 SLP173 T02610233
KHBG 191153Z AUTO 00000KT 10SM FEW048 24/23 A3004 RMK AO2 SLP170 70003 T02390228 10244 20239 53010

METAR Board
Radar Display
Forecast Discussion
For situational awareness. Not to be used for flight planning purposes.